Time;durP1;ratioP1;P1;durP2;ratioP2;P2;SDS_P1;SDS_P2;PMS_P1;PMS_P2;Temp;Humidity;BMP_temperature;BMP_pressure;BME280_temperature;BME280_humidity;BME280_pressure;Samples;Min_cycle;Max_cycle;Signal;HPM_P1;HPM_P2
2022/11/06 00:02:16;;;;;;;14.17;7.47;;;9.80;99.90;;;;;;5008838;28;20175;-76
2022/11/06 00:04:41;;;;;;;13.80;7.90;;;9.80;99.90;;;;;;5026355;28;20081;-76
2022/11/06 00:07:07;;;;;;;11.17;7.80;;;9.60;99.90;;;;;;4977557;28;20535;-75
2022/11/06 00:09:33;;;;;;;15.93;8.60;;;9.70;99.90;;;;;;5009631;28;20069;-75
2022/11/06 00:11:59;;;;;;;15.77;8.57;;;9.60;99.90;;;;;;5009822;28;20090;-76
2022/11/06 00:14:25;;;;;;;17.50;8.37;;;9.50;99.90;;;;;;5021188;28;20045;-75
2022/11/06 00:16:50;;;;;;;17.47;7.77;;;9.50;99.90;;;;;;4980730;28;20077;-76
2022/11/06 00:19:16;;;;;;;14.20;8.40;;;9.50;99.90;;;;;;4999125;28;20045;-75
2022/11/06 00:21:43;;;;;;;21.90;9.17;;;9.50;99.90;;;;;;4993184;28;20442;-75
2022/11/06 00:24:12;;;;;;;18.23;9.30;;;9.50;99.90;;;;;;5008753;28;20076;-76
2022/11/06 00:26:38;;;;;;;16.30;9.60;;;9.40;99.90;;;;;;4979430;28;20081;-75
2022/11/06 00:29:05;;;;;;;17.50;9.97;;;9.50;99.90;;;;;;5006563;28;20505;-76
2022/11/06 00:31:34;;;;;;;17.17;10.70;;;9.30;99.90;;;;;;5009724;28;20415;-76
2022/11/06 00:34:00;;;;;;;18.77;10.97;;;9.30;99.90;;;;;;5008241;28;20148;-76
2022/11/06 00:36:29;;;;;;;22.80;12.03;;;9.20;99.90;;;;;;4964337;28;20747;-75
2022/11/06 00:38:56;;;;;;;18.83;11.17;;;9.20;99.90;;;;;;5008421;28;20578;-75
2022/11/06 00:41:22;;;;;;;19.40;11.43;;;9.10;99.90;;;;;;5012828;28;20045;-76
2022/11/06 00:43:54;;;;;;;21.30;12.10;;;9.20;99.90;;;;;;5011460;28;20050;-75
2022/11/06 00:46:20;;;;;;;19.40;11.47;;;9.20;99.90;;;;;;5018096;28;20041;-75
2022/11/06 00:48:46;;;;;;;19.77;12.20;;;9.10;99.90;;;;;;5006441;28;20075;-76
2022/11/06 00:51:14;;;;;;;25.20;11.77;;;9.10;99.90;;;;;;5012379;28;20519;-75
2022/11/06 00:53:41;;;;;;;22.43;12.37;;;9.10;99.90;;;;;;5022547;28;20483;-75
2022/11/06 00:56:13;;;;;;;21.33;12.47;;;9.00;99.90;;;;;;5005055;28;20053;-75
2022/11/06 00:58:39;;;;;;;22.80;13.13;;;9.10;99.90;;;;;;5002102;28;20078;-75
2022/11/06 01:01:11;;;;;;;27.63;13.93;;;9.10;99.90;;;;;;5009062;28;20046;-76
2022/11/06 01:03:38;;;;;;;23.90;12.83;;;9.10;99.90;;;;;;5007669;28;20058;-75
2022/11/06 01:06:18;;;;;;;21.50;13.37;;;9.10;99.90;;;;;;5008914;28;20054;-76
2022/11/06 01:08:44;;;;;;;21.60;12.20;;;9.00;99.90;;;;;;5003470;28;20128;-75
2022/11/06 01:11:14;;;;;;;26.40;13.63;;;9.10;99.90;;;;;;5012723;28;20046;-75
2022/11/06 01:13:40;;;;;;;22.27;12.90;;;9.00;99.90;;;;;;5008634;28;20061;-75
2022/11/06 01:16:11;;;;;;;21.90;12.87;;;9.00;99.90;;;;;;5004862;28;20053;-75
2022/11/06 01:18:38;;;;;;;20.48;11.95;;;9.00;99.90;;;;;;5004075;28;20121;-75
2022/11/06 01:21:06;;;;;;;26.80;12.97;;;9.00;99.90;;;;;;5011645;28;20062;-75
2022/11/06 01:23:33;;;;;;;26.30;14.30;;;9.00;99.90;;;;;;5008245;28;20041;-76
2022/11/06 01:26:01;;;;;;;25.67;13.60;;;9.00;99.90;;;;;;5015536;28;20495;-76
2022/11/06 01:28:27;;;;;;;21.00;13.17;;;9.00;99.90;;;;;;5015779;28;20050;-76
2022/11/06 01:30:53;;;;;;;18.03;12.67;;;9.00;99.90;;;;;;5015682;28;20049;-76
2022/11/06 01:33:19;;;;;;;23.30;13.80;;;9.10;99.90;;;;;;5031828;28;20042;-75
2022/11/06 01:35:47;;;;;;;25.33;14.03;;;9.00;99.90;;;;;;4988182;28;20052;-76
2022/11/06 01:38:13;;;;;;;27.77;14.40;;;9.00;99.90;;;;;;5015066;28;20048;-76
2022/11/06 01:40:44;;;;;;;20.57;14.50;;;9.00;99.90;;;;;;4996182;28;20046;-76
2022/11/06 01:43:14;;;;;;;;;;;9.00;99.90;;;;;;5028263;28;20042;-75
2022/11/06 01:45:43;;;;;;;24.10;15.17;;;9.00;99.90;;;;;;5012574;28;20278;-76
2022/11/06 01:48:10;;;;;;;21.00;14.13;;;9.00;99.90;;;;;;4995562;28;20042;-76
2022/11/06 01:50:36;;;;;;;26.03;14.70;;;9.10;99.90;;;;;;4995657;28;20456;-76
2022/11/06 01:53:03;;;;;;;24.93;16.17;;;9.00;99.90;;;;;;4994969;28;20056;-76
2022/11/06 01:55:34;;;;;;;22.23;15.60;;;9.00;99.90;;;;;;4995805;28;20133;-76
2022/11/06 01:58:02;;;;;;;27.88;16.40;;;9.00;99.90;;;;;;4995613;28;20677;-76
2022/11/06 02:00:29;;;;;;;28.50;16.67;;;9.10;99.90;;;;;;4979379;28;20050;-76
2022/11/06 02:02:55;;;;;;;23.40;15.73;;;9.00;99.90;;;;;;5011170;28;20049;-76
2022/11/06 02:05:21;;;;;;;27.17;16.20;;;9.00;99.90;;;;;;4979244;28;20145;-76
2022/11/06 02:07:47;;;;;;;22.40;15.73;;;9.00;99.90;;;;;;4979360;28;20402;-76
2022/11/06 02:10:13;;;;;;;21.83;15.43;;;9.10;99.90;;;;;;5003148;28;20099;-76
2022/11/06 02:13:01;;;;;;;26.23;15.73;;;9.10;99.90;;;;;;5002417;28;20389;-76
2022/11/06 02:15:52;;;;;;;22.17;15.37;;;9.00;99.90;;;;;;5031726;28;20049;-76
2022/11/06 02:18:20;;;;;;;27.45;16.50;;;9.00;99.90;;;;;;4996701;28;20038;-76
2022/11/06 02:21:24;;;;;;;22.40;15.97;;;9.00;99.90;;;;;;5011213;28;20392;-75
2022/11/06 02:23:57;;;;;;;21.60;16.20;;;9.10;99.90;;;;;;5009520;28;20073;-75
2022/11/06 02:26:56;;;;;;;20.13;15.00;;;9.00;99.90;;;;;;4983220;28;20082;-76
2022/11/06 02:29:27;;;;;;;20.27;15.33;;;9.10;99.90;;;;;;5010541;28;20081;-76
2022/11/06 02:31:58;;;;;;;19.10;13.90;;;9.10;99.90;;;;;;5011548;28;20053;-75
2022/11/06 02:34:26;;;;;;;22.63;14.82;;;9.10;99.90;;;;;;5026808;28;20045;-76
2022/11/06 02:37:06;;;;;;;25.03;15.77;;;9.10;99.90;;;;;;5007288;28;20049;-75
2022/11/06 02:39:35;;;;;;;19.60;14.40;;;9.10;99.90;;;;;;5018942;28;20053;-76
2022/11/06 02:42:04;;;;;;;20.67;15.17;;;9.10;99.90;;;;;;5012042;28;20403;-75
2022/11/06 02:44:31;;;;;;;22.07;15.27;;;9.10;99.90;;;;;;5013630;28;20049;-76
2022/11/06 02:47:03;;;;;;;23.23;15.73;;;9.10;99.90;;;;;;5015414;28;20041;-76
2022/11/06 02:49:44;;;;;;;23.60;15.27;;;9.10;99.90;;;;;;5029523;28;20096;-76
2022/11/06 02:52:15;;;;;;;22.37;15.27;;;9.10;99.90;;;;;;5026938;28;20110;-76
2022/11/06 02:54:46;;;;;;;24.00;15.75;;;9.10;99.90;;;;;;4994967;28;20492;-76
2022/11/06 02:57:14;;;;;;;19.95;15.95;;;9.20;99.90;;;;;;4978418;28;20042;-76
2022/11/06 03:00:04;;;;;;;23.13;14.60;;;9.20;99.90;;;;;;4994582;28;20077;-76
2022/11/06 03:02:36;;;;;;;24.60;15.90;;;9.10;99.90;;;;;;4999972;28;20046;-76
2022/11/06 03:05:10;;;;;;;23.75;14.93;;;9.40;99.90;;;;;;5026148;28;20495;-76
2022/11/06 03:07:41;;;;;;;21.93;15.07;;;9.30;99.90;;;;;;5013789;28;20503;-76
2022/11/06 03:10:08;;;;;;;20.90;15.63;;;9.20;99.90;;;;;;5020096;28;20052;-76
2022/11/06 03:12:45;;;;;;;22.23;14.90;;;9.30;99.90;;;;;;5009907;28;20033;-76
2022/11/06 03:15:37;;;;;;;24.43;14.97;;;9.30;99.90;;;;;;5013057;28;20456;-76
2022/11/06 03:18:28;;;;;;;21.60;15.03;;;9.30;99.90;;;;;;4997595;28;20037;-76
2022/11/06 03:21:18;;;;;;;20.80;15.73;;;9.40;99.90;;;;;;5004605;28;20089;-76
2022/11/06 03:23:54;;;;;;;20.17;14.37;;;9.30;99.90;;;;;;4983249;28;20049;-75
2022/11/06 03:26:32;;;;;;;26.27;15.53;;;9.30;99.90;;;;;;4999270;28;20492;-75
2022/11/06 03:29:12;;;;;;;19.80;14.17;;;9.30;99.90;;;;;;5007756;28;20073;-76
2022/11/06 03:32:03;;;;;;;18.80;14.67;;;9.30;99.90;;;;;;5008659;28;20483;-76
2022/11/06 03:34:38;;;;;;;22.17;15.57;;;9.30;99.90;;;;;;4993071;28;20046;-76
2022/11/06 03:37:17;;;;;;;19.73;14.90;;;9.30;99.90;;;;;;5007833;28;20526;-76
2022/11/06 03:39:52;;;;;;;18.80;14.27;;;9.30;99.90;;;;;;5016394;28;20461;-76
2022/11/06 03:42:22;;;;;;;24.17;14.67;;;9.20;99.90;;;;;;5012779;28;20059;-76
2022/11/06 03:44:54;;;;;;;20.33;15.27;;;9.30;99.90;;;;;;5029632;28;20099;-76
2022/11/06 03:47:32;;;;;;;18.83;14.20;;;9.30;99.90;;;;;;4996873;28;20048;-76
2022/11/06 03:50:22;;;;;;;19.53;14.53;;;9.30;99.90;;;;;;5029254;28;20176;-76
2022/11/06 03:53:08;;;;;;;19.10;14.20;;;9.30;99.90;;;;;;5028023;28;20475;-75
2022/11/06 03:56:00;;;;;;;19.17;13.80;;;9.30;99.90;;;;;;4976679;28;20053;-76
2022/11/06 03:58:31;;;;;;;19.40;14.00;;;9.40;99.90;;;;;;4992709;28;20103;-76
2022/11/06 04:01:00;;;;;;;18.85;14.73;;;9.30;99.90;;;;;;4993396;28;20103;-76
2022/11/06 04:03:35;;;;;;;19.00;14.37;;;9.30;99.90;;;;;;4984490;28;20042;-76
2022/11/06 04:06:29;;;;;;;25.47;16.23;;;9.40;99.90;;;;;;5012715;28;20045;-76
2022/11/06 04:14:32;;;;;;;24.23;14.83;;;9.40;99.90;;;;;;5022022;28;20479;-76
2022/11/06 04:17:01;;;;;;;22.93;15.97;;;9.40;99.90;;;;;;5013929;28;20128;-76
2022/11/06 04:19:26;;;;;;;23.73;14.97;;;9.40;99.90;;;;;;5009734;28;20057;-76
2022/11/06 04:22:14;;;;;;;21.00;14.93;;;9.40;99.90;;;;;;4993159;28;20402;-76
2022/11/06 04:28:01;;;;;;;25.17;15.87;;;9.40;99.90;;;;;;4992946;28;20475;-76
2022/11/06 04:30:31;;;;;;;23.00;15.67;;;9.40;99.90;;;;;;5002587;28;20690;-76
2022/11/06 04:33:11;;;;;;;26.20;16.17;;;9.40;99.90;;;;;;5008204;28;20056;-75
2022/11/06 04:35:45;;;;;;;23.83;16.27;;;9.40;99.90;;;;;;4994797;28;20038;-76
2022/11/06 04:38:33;;;;;;;23.47;15.20;;;9.40;99.90;;;;;;4995727;28;20056;-76
2022/11/06 04:41:20;;;;;;;26.30;15.30;;;9.50;99.90;;;;;;5009052;28;20053;-75
2022/11/06 04:44:08;;;;;;;23.03;15.47;;;9.50;99.90;;;;;;4992039;28;20057;-76
2022/11/06 04:46:45;;;;;;;27.23;16.10;;;9.40;99.90;;;;;;4995261;28;20042;-76
2022/11/06 04:49:12;;;;;;;27.50;15.43;;;9.50;99.90;;;;;;5008104;28;20068;-76
2022/11/06 04:51:39;;;;;;;22.23;15.50;;;9.50;99.90;;;;;;5007256;28;20495;-75
2022/11/06 04:54:07;;;;;;;23.77;15.10;;;9.50;99.90;;;;;;5002567;28;20054;-76
2022/11/06 04:56:35;;;;;;;21.77;15.10;;;9.50;99.90;;;;;;4994109;28;20060;-76
2022/11/06 04:59:04;;;;;;;20.23;15.20;;;9.50;99.90;;;;;;5009853;28;20124;-76
2022/11/06 05:01:30;;;;;;;20.30;14.00;;;9.50;99.90;;;;;;5028704;28;20045;-75
2022/11/06 05:03:56;;;;;;;23.53;14.53;;;9.50;99.90;;;;;;5027746;28;20120;-76
2022/11/06 05:06:22;;;;;;;27.83;19.23;;;9.50;99.90;;;;;;5014490;28;20091;-76
2022/11/06 05:08:47;;;;;;;25.10;15.03;;;9.40;99.90;;;;;;4988624;28;20301;-76
2022/11/06 05:11:13;;;;;;;23.87;14.90;;;9.50;99.90;;;;;;4992872;28;20058;-76
2022/11/06 05:13:39;;;;;;;25.03;14.83;;;9.50;99.90;;;;;;4975356;28;20381;-76
2022/11/06 05:16:05;;;;;;;22.53;15.83;;;9.50;99.90;;;;;;4979552;28;20033;-75
2022/11/06 05:18:31;;;;;;;26.43;16.70;;;9.40;99.90;;;;;;5002250;28;20446;-75
2022/11/06 05:23:45;;;;;;;35.07;21.03;;;9.50;99.90;;;;;;4998396;28;20046;-75
2022/11/06 05:26:11;;;;;;;33.13;20.17;;;9.60;99.90;;;;;;5001135;28;20062;-76
2022/11/06 05:28:37;;;;;;;27.83;18.13;;;9.50;99.90;;;;;;5000207;28;20045;-76
2022/11/06 05:31:03;;;;;;;31.90;20.17;;;9.50;99.90;;;;;;4966853;28;20037;-76
2022/11/06 05:33:29;;;;;;;24.77;17.50;;;9.50;99.90;;;;;;5000684;28;20065;-75
2022/11/06 05:35:55;;;;;;;31.10;19.03;;;9.40;99.90;;;;;;5011194;28;20053;-76
2022/11/06 05:38:21;;;;;;;27.77;18.43;;;9.40;99.90;;;;;;5009868;28;20041;-76
2022/11/06 05:40:47;;;;;;;20.30;14.03;;;9.50;99.90;;;;;;4992367;28;20141;-75
2022/11/06 05:43:12;;;;;;;23.93;13.40;;;9.40;99.90;;;;;;4991344;28;20092;-76
2022/11/06 05:45:38;;;;;;;22.83;13.17;;;9.40;99.90;;;;;;4992301;28;20423;-76
2022/11/06 05:48:04;;;;;;;20.60;13.37;;;9.50;99.90;;;;;;4959693;28;20046;-76
2022/11/06 05:50:30;;;;;;;21.90;13.80;;;9.40;99.90;;;;;;5026027;28;20054;-76
2022/11/06 05:52:55;;;;;;;19.97;12.93;;;9.40;99.90;;;;;;4996024;28;20228;-76
2022/11/06 05:55:21;;;;;;;19.10;12.87;;;9.50;99.90;;;;;;4992846;28;20069;-76
2022/11/06 05:57:47;;;;;;;21.57;12.67;;;9.40;99.90;;;;;;4995842;28;20046;-76
2022/11/06 06:00:13;;;;;;;19.57;13.10;;;9.40;99.90;;;;;;4995555;28;20053;-76
2022/11/06 06:02:39;;;;;;;21.33;11.50;;;9.40;99.90;;;;;;5011247;28;20046;-76
2022/11/06 06:05:06;;;;;;;20.23;11.87;;;9.40;99.90;;;;;;5011620;28;20042;-76
2022/11/06 06:07:31;;;;;;;17.23;12.10;;;9.40;99.90;;;;;;4979213;28;20136;-75
2022/11/06 06:09:57;;;;;;;19.03;12.20;;;9.40;99.90;;;;;;4995463;28;20430;-76
2022/11/06 06:12:25;;;;;;;20.53;11.50;;;9.40;99.90;;;;;;5010646;28;20245;-76
2022/11/06 06:14:51;;;;;;;19.27;10.97;;;9.40;99.90;;;;;;4980904;28;20049;-76
2022/11/06 06:17:17;;;;;;;20.53;11.93;;;9.40;99.90;;;;;;4972700;28;20390;-76
2022/11/06 06:19:43;;;;;;;16.30;10.93;;;9.40;99.90;;;;;;5008337;28;20427;-76
2022/11/06 06:22:09;;;;;;;15.90;10.40;;;9.30;99.90;;;;;;4995048;28;20042;-76
2022/11/06 06:24:34;;;;;;;18.13;11.17;;;9.40;99.90;;;;;;4990366;28;20042;-76
2022/11/06 06:27:00;;;;;;;15.40;10.53;;;9.30;99.90;;;;;;4932991;28;20085;-76
2022/11/06 06:29:26;;;;;;;17.30;10.47;;;9.40;99.90;;;;;;4972278;28;20085;-76
2022/11/06 06:31:52;;;;;;;13.77;10.40;;;9.40;99.90;;;;;;5001342;28;20076;-76
2022/11/06 06:34:18;;;;;;;14.90;10.10;;;9.40;99.90;;;;;;4991639;28;20104;-76
2022/11/06 06:36:43;;;;;;;17.27;11.13;;;9.40;99.90;;;;;;4992729;28;20083;-76
2022/11/06 06:39:09;;;;;;;15.30;9.83;;;9.50;99.90;;;;;;4995844;28;20049;-76
2022/11/06 06:41:35;;;;;;;18.10;10.30;;;9.50;99.90;;;;;;4986164;28;20092;-76
2022/11/06 06:44:01;;;;;;;16.47;10.03;;;9.40;99.90;;;;;;4971439;28;20567;-76
2022/11/06 06:46:26;;;;;;;18.20;10.00;;;9.50;99.90;;;;;;4976996;28;20045;-75
2022/11/06 06:48:52;;;;;;;19.13;10.93;;;9.30;99.90;;;;;;4971482;28;20042;-75
2022/11/06 06:51:18;;;;;;;16.20;10.30;;;9.30;99.90;;;;;;4997452;28;20116;-75
2022/11/06 06:53:44;;;;;;;18.53;10.37;;;9.50;99.90;;;;;;5006617;28;20112;-76
2022/11/06 06:56:09;;;;;;;17.47;9.73;;;9.40;99.90;;;;;;4982568;28;20042;-76
2022/11/06 06:58:35;;;;;;;20.07;10.23;;;9.30;99.90;;;;;;4998600;28;20041;-76
2022/11/06 07:01:03;;;;;;;19.10;10.83;;;9.30;99.90;;;;;;4994475;28;20057;-76
2022/11/06 07:03:29;;;;;;;21.57;11.60;;;9.30;99.90;;;;;;5009630;28;20037;-76
2022/11/06 07:05:59;;;;;;;23.50;12.03;;;9.20;99.90;;;;;;5010707;28;20491;-76
2022/11/06 07:08:26;;;;;;;22.13;11.87;;;9.30;99.90;;;;;;4987328;28;20084;-76
2022/11/06 07:10:51;;;;;;;21.93;12.40;;;9.20;99.90;;;;;;5013854;28;20052;-76
2022/11/06 07:13:17;;;;;;;22.87;11.70;;;9.10;99.90;;;;;;4996929;28;20049;-75
2022/11/06 07:15:43;;;;;;;20.23;10.30;;;9.10;99.90;;;;;;5013438;28;20041;-76
2022/11/06 07:18:09;;;;;;;22.47;10.97;;;9.20;99.90;;;;;;5014219;28;20072;-76
2022/11/06 07:20:35;;;;;;;24.47;11.07;;;9.20;99.90;;;;;;5002180;28;20081;-75
2022/11/06 07:23:07;;;;;;;18.47;10.40;;;9.20;99.90;;;;;;4973663;28;20520;-76
2022/11/06 07:25:34;;;;;;;15.67;9.80;;;9.20;99.90;;;;;;4985682;28;20046;-76
2022/11/06 07:28:04;;;;;;;23.47;10.47;;;9.10;99.90;;;;;;5010025;28;20076;-76
2022/11/06 07:30:31;;;;;;;22.63;10.07;;;9.10;99.90;;;;;;5025624;28;20042;-75
2022/11/06 07:33:02;;;;;;;20.63;8.70;;;9.20;99.90;;;;;;5012409;28;20492;-76
2022/11/06 07:35:29;;;;;;;22.77;8.82;;;9.20;99.90;;;;;;5000333;28;20442;-76
2022/11/06 07:37:55;;;;;;;14.40;9.57;;;9.20;99.90;;;;;;5000992;28;20038;-76
2022/11/06 07:40:21;;;;;;;16.40;8.80;;;9.30;99.90;;;;;;4984257;28;20093;-75
2022/11/06 07:42:47;;;;;;;20.43;9.87;;;9.30;99.90;;;;;;4994959;28;20049;-76
2022/11/06 07:45:13;;;;;;;19.97;9.70;;;9.10;99.90;;;;;;4990730;28;20445;-75
2022/11/06 07:47:38;;;;;;;19.37;10.40;;;9.20;99.90;;;;;;4978327;28;20092;-76
2022/11/06 07:50:05;;;;;;;19.53;9.40;;;9.20;99.90;;;;;;4985621;28;20112;-76
2022/11/06 07:52:32;;;;;;;15.63;8.77;;;9.10;99.90;;;;;;4990492;28;20732;-76
2022/11/06 07:54:58;;;;;;;18.80;8.97;;;9.20;99.90;;;;;;4993900;28;20515;-76
2022/11/06 07:57:24;;;;;;;22.33;10.37;;;9.10;99.90;;;;;;4980200;28;20392;-76
2022/11/06 07:59:49;;;;;;;18.87;8.70;;;9.20;99.90;;;;;;4979757;28;20050;-75
2022/11/06 08:02:16;;;;;;;29.03;11.60;;;9.20;99.90;;;;;;4989667;28;20115;-76
2022/11/06 08:04:42;;;;;;;20.30;9.30;;;9.20;99.90;;;;;;4976484;28;20539;-76
2022/11/06 08:07:07;;;;;;;20.83;10.93;;;9.30;99.90;;;;;;4986286;28;20092;-76
2022/11/06 08:09:33;;;;;;;17.57;9.93;;;9.40;99.90;;;;;;4985327;28;20057;-76
2022/11/06 08:11:59;;;;;;;18.43;8.53;;;9.30;99.90;;;;;;4992544;28;20399;-76
2022/11/06 08:14:24;;;;;;;22.93;12.20;;;9.30;99.90;;;;;;4966052;28;20200;-76
2022/11/06 08:16:50;;;;;;;19.07;10.47;;;9.30;99.90;;;;;;4977628;28;20029;-76
2022/11/06 08:19:16;;;;;;;15.83;10.00;;;9.50;99.90;;;;;;4987504;28;20050;-76
2022/11/06 08:21:41;;;;;;;19.00;9.60;;;9.40;99.90;;;;;;4971816;28;20049;-75
2022/11/06 08:24:07;;;;;;;14.20;8.73;;;9.50;99.90;;;;;;4990133;28;20054;-75
2022/11/06 08:26:33;;;;;;;19.67;9.13;;;9.50;99.90;;;;;;4964558;28;20502;-76
2022/11/06 08:28:58;;;;;;;17.13;8.60;;;9.50;99.90;;;;;;4970919;28;20052;-75
2022/11/06 08:31:24;;;;;;;22.70;9.77;;;9.50;99.90;;;;;;4991542;28;20053;-76
2022/11/06 08:33:50;;;;;;;18.27;8.47;;;9.50;99.90;;;;;;4971825;28;20243;-76
2022/11/06 08:36:16;;;;;;;17.20;8.27;;;9.40;99.90;;;;;;4988960;28;20137;-76
2022/11/06 08:38:42;;;;;;;21.20;9.47;;;9.60;99.90;;;;;;4989323;28;20046;-76
2022/11/06 08:41:10;;;;;;;18.17;9.63;;;9.50;99.90;;;;;;4986888;28;20050;-76
2022/11/06 08:43:36;;;;;;;16.93;8.53;;;9.40;99.90;;;;;;4992018;28;20042;-76
2022/11/06 08:46:06;;;;;;;21.43;8.40;;;9.40;99.90;;;;;;4988591;28;20102;-75
2022/11/06 08:48:33;;;;;;;14.20;6.27;;;9.50;99.90;;;;;;4964831;28;20038;-75
2022/11/06 08:50:58;;;;;;;21.67;10.20;;;9.60;99.90;;;;;;4972850;28;20505;-76
2022/11/06 08:53:25;;;;;;;14.50;7.57;;;9.80;99.90;;;;;;4995302;28;20049;-75
2022/11/06 08:55:51;;;;;;;14.37;8.40;;;9.70;99.90;;;;;;4941154;28;20560;-76
2022/11/06 08:58:17;;;;;;;15.27;7.50;;;9.60;99.90;;;;;;4961140;28;20126;-75
2022/11/06 09:00:42;;;;;;;13.90;7.27;;;9.70;99.90;;;;;;4959400;28;20047;-75
2022/11/06 09:03:13;;;;;;;23.07;11.40;;;9.70;99.90;;;;;;4961884;28;20054;-76
2022/11/06 09:05:41;;;;;;;30.33;11.95;;;9.80;99.90;;;;;;4988215;28;20104;-76
2022/11/06 09:08:07;;;;;;;37.63;16.77;;;9.90;99.90;;;;;;4949487;28;20046;-76
2022/11/06 09:10:33;;;;;;;14.70;6.63;;;9.90;99.90;;;;;;4995217;28;20084;-76
2022/11/06 09:12:59;;;;;;;11.50;6.10;;;9.90;99.90;;;;;;4990407;28;20378;-76
2022/11/06 09:15:26;;;;;;;13.33;5.13;;;9.90;99.90;;;;;;4991440;28;20109;-75
2022/11/06 09:17:52;;;;;;;14.47;6.77;;;10.00;99.90;;;;;;4948312;28;20144;-76
2022/11/06 09:20:19;;;;;;;14.87;5.30;;;9.90;99.90;;;;;;4974714;28;20420;-75
2022/11/06 09:22:45;;;;;;;9.87;4.53;;;9.90;99.90;;;;;;4990597;28;20428;-76
2022/11/06 09:25:11;;;;;;;9.87;4.87;;;9.90;99.90;;;;;;4973503;28;20046;-75
2022/11/06 09:27:45;;;;;;;10.40;4.47;;;10.00;99.90;;;;;;4976910;28;20492;-76
2022/11/06 09:30:13;;;;;;;13.53;4.77;;;10.10;99.90;;;;;;4991635;28;20054;-75
2022/11/06 09:32:48;;;;;;;9.07;4.23;;;10.10;99.90;;;;;;4997884;28;20053;-76
2022/11/06 09:35:15;;;;;;;10.47;4.10;;;10.10;99.90;;;;;;4980391;28;20132;-75
2022/11/06 09:37:40;;;;;;;15.40;4.23;;;10.20;99.90;;;;;;4966672;28;20496;-76
2022/11/06 09:40:10;;;;;;;9.97;4.40;;;10.20;99.90;;;;;;4993570;28;20046;-76
2022/11/06 09:42:59;;;;;;;10.40;4.07;;;10.20;99.90;;;;;;4977054;28;20053;-75
2022/11/06 09:45:29;;;;;;;14.67;4.43;;;10.30;99.90;;;;;;4994723;28;20133;-75
2022/11/06 09:48:09;;;;;;;11.67;3.63;;;10.20;99.90;;;;;;4978366;28;20073;-75
2022/11/06 09:50:45;;;;;;;12.63;4.20;;;10.20;99.90;;;;;;4991675;28;20042;-75
2022/11/06 09:53:26;;;;;;;11.70;4.07;;;10.20;99.90;;;;;;4994063;28;20045;-76
2022/11/06 09:55:53;;;;;;;12.95;3.67;;;10.20;99.90;;;;;;4988684;28;20046;-76
2022/11/06 09:58:41;;;;;;;14.53;4.03;;;10.30;99.90;;;;;;4966242;28;20042;-76
2022/11/06 10:01:22;;;;;;;12.47;4.30;;;10.30;99.90;;;;;;4992017;28;20054;-75
2022/11/06 10:03:58;;;;;;;14.07;4.35;;;10.30;99.90;;;;;;4998424;28;20046;-76
2022/11/06 10:06:26;;;;;;;12.93;4.57;;;10.40;99.90;;;;;;4999963;28;20054;-76
2022/11/06 10:08:56;;;;;;;12.00;4.10;;;10.30;99.90;;;;;;5006299;28;20049;-76
2022/11/06 10:11:21;;;;;;;13.83;4.13;;;10.40;99.90;;;;;;5013910;28;20475;-76
2022/11/06 10:13:57;;;;;;;11.60;3.70;;;10.40;99.90;;;;;;5007923;28;20081;-76
2022/11/06 10:16:53;;;;;;;12.23;4.17;;;10.50;99.90;;;;;;4998654;28;20122;-76
2022/11/06 10:19:34;;;;;;;12.77;4.20;;;10.50;99.90;;;;;;5018306;28;20046;-76
2022/11/06 10:22:03;;;;;;;10.18;3.75;;;10.50;99.90;;;;;;5004533;28;20107;-75
2022/11/06 10:25:14;;;;;;;13.13;4.03;;;10.50;99.90;;;;;;5000711;28;20046;-76
2022/11/06 10:27:45;;;;;;;13.05;3.78;;;10.50;99.90;;;;;;4983353;28;20047;-76
2022/11/06 10:30:13;;;;;;;14.70;3.97;;;10.70;99.90;;;;;;5000243;28;20515;-76
2022/11/06 10:33:09;;;;;;;11.23;4.37;;;10.70;99.90;;;;;;5011925;28;20069;-76
2022/11/06 10:35:43;;;;;;;14.00;4.17;;;10.70;99.90;;;;;;4995482;28;20050;-76
2022/11/06 10:38:14;;;;;;;11.57;4.37;;;10.80;99.90;;;;;;4983407;28;20050;-76
2022/11/06 10:40:45;;;;;;;10.18;5.38;;;10.80;99.90;;;;;;5006860;28;20053;-76
2022/11/06 10:43:30;;;;;;;10.85;3.55;;;10.80;99.90;;;;;;5012935;28;20050;-76
2022/11/06 10:46:17;;;;;;;13.07;4.10;;;11.00;99.90;;;;;;5000092;28;20053;-76
2022/11/06 10:48:47;;;;;;;8.07;3.67;;;11.00;99.90;;;;;;4998970;28;20125;-76
2022/11/06 10:51:23;;;;;;;8.98;3.50;;;11.10;99.90;;;;;;4986705;28;20493;-76
2022/11/06 10:54:15;;;;;;;12.93;3.50;;;11.10;99.90;;;;;;5003417;28;20412;-76
2022/11/06 10:56:49;;;;;;;;;;;11.10;99.90;;;;;;4979128;28;20134;-76
2022/11/06 10:59:15;;;;;;;6.83;2.70;;;11.10;99.90;;;;;;4999187;28;20015;-76
2022/11/06 11:01:41;;;;;;;11.40;3.58;;;11.10;99.90;;;;;;5008092;28;20429;-76
2022/11/06 11:04:06;;;;;;;9.88;3.22;;;11.20;99.90;;;;;;5006997;28;20489;-76
2022/11/06 11:06:32;;;;;;;10.40;3.08;;;11.20;99.90;;;;;;4976391;28;20049;-76
2022/11/06 11:08:58;;;;;;;9.82;3.10;;;11.20;99.90;;;;;;5005119;28;20054;-76
2022/11/06 11:11:26;;;;;;;8.65;2.88;;;11.20;99.90;;;;;;5018246;28;20053;-76
2022/11/06 11:14:00;;;;;;;8.40;2.95;;;11.20;99.90;;;;;;5003897;28;20486;-76
2022/11/06 11:16:31;;;;;;;8.77;2.83;;;11.40;99.90;;;;;;4991497;28;20768;-76
2022/11/06 11:19:33;;;;;;;10.20;3.30;;;11.00;99.90;;;;;;4979516;28;20034;-76
2022/11/06 11:22:04;;;;;;;12.13;3.40;;;11.00;99.90;;;;;;4987367;28;20492;-76
2022/11/06 11:24:31;;;;;;;10.55;4.00;;;11.10;99.90;;;;;;4986353;28;20499;-76
2022/11/06 11:27:00;;;;;;;10.32;2.97;;;11.00;99.90;;;;;;4971112;28;20113;-76
2022/11/06 11:29:29;;;;;;;14.30;3.75;;;11.00;99.90;;;;;;4983043;28;20046;-76
2022/11/06 11:31:59;;;;;;;11.60;3.38;;;10.90;99.90;;;;;;4978952;28;20141;-76
2022/11/06 11:34:31;;;;;;;11.65;3.95;;;10.90;99.90;;;;;;4986482;28;20041;-76
2022/11/06 11:37:04;;;;;;;10.52;5.38;;;10.90;99.90;;;;;;4983949;28;20136;-76
2022/11/06 11:39:36;;;;;;;7.95;3.25;;;10.90;99.90;;;;;;4972630;28;20614;-76
2022/11/06 11:42:21;;;;;;;12.10;4.40;;;10.90;99.90;;;;;;4971091;28;20093;-76
2022/11/06 11:45:05;;;;;;;11.10;3.75;;;10.90;99.90;;;;;;4969679;28;20042;-76
2022/11/06 11:47:30;;;;;;;11.50;3.30;;;10.80;99.90;;;;;;4988047;28;20125;-76
2022/11/06 11:49:56;;;;;;;11.35;3.92;;;10.80;99.90;;;;;;4987492;28;20132;-76
2022/11/06 11:52:22;;;;;;;9.40;4.00;;;10.80;99.90;;;;;;4985652;28;20108;-76
2022/11/06 11:54:51;;;;;;;9.82;3.60;;;10.90;99.90;;;;;;4970319;28;20062;-76
2022/11/06 11:57:23;;;;;;;8.82;3.58;;;10.80;99.90;;;;;;4987871;28;20124;-76
2022/11/06 12:00:00;;;;;;;10.00;3.58;;;10.90;99.90;;;;;;4987706;28;20046;-76
2022/11/06 12:02:33;;;;;;;12.10;4.00;;;10.90;99.90;;;;;;4997318;28;20389;-75
2022/11/06 12:05:08;;;;;;;9.20;3.60;;;10.90;99.90;;;;;;5018720;28;20130;-77
2022/11/06 12:07:46;;;;;;;11.47;3.43;;;10.90;99.90;;;;;;4973750;28;20382;-76
2022/11/06 12:10:34;;;;;;;8.53;3.43;;;11.00;99.90;;;;;;4988826;28;20103;-76
2022/11/06 12:13:04;;;;;;;8.77;3.60;;;11.00;99.90;;;;;;4986013;28;20164;-76
2022/11/06 12:15:52;;;;;;;7.37;3.43;;;11.00;99.90;;;;;;5000012;28;20145;-76
2022/11/06 12:18:34;;;;;;;11.50;3.23;;;11.10;99.90;;;;;;4988780;28;20261;-76
2022/11/06 12:21:16;;;;;;;9.93;3.27;;;11.20;99.90;;;;;;4990529;28;20140;-77
2022/11/06 12:23:58;;;;;;;9.48;3.10;;;11.20;99.90;;;;;;4985388;28;20050;-76
2022/11/06 12:26:37;;;;;;;8.57;3.30;;;11.20;99.90;;;;;;4973446;28;20499;-76
2022/11/06 12:29:13;;;;;;;10.27;3.33;;;11.20;99.90;;;;;;4994049;28;20049;-76
2022/11/06 12:31:46;;;;;;;10.60;2.92;;;11.20;99.90;;;;;;4981301;28;20041;-76
2022/11/06 12:34:31;;;;;;;9.10;2.90;;;11.40;99.90;;;;;;5006889;28;20060;-76
2022/11/06 12:37:34;;;;;;;11.45;2.80;;;11.30;99.90;;;;;;4974826;28;20034;-76
2022/11/06 12:40:12;;;;;;;7.93;2.92;;;11.30;99.90;;;;;;4984408;28;20060;-77
2022/11/06 12:42:40;;;;;;;9.55;2.92;;;11.40;99.90;;;;;;5001947;28;20049;-76
2022/11/06 12:45:15;;;;;;;10.80;3.10;;;11.40;99.90;;;;;;4975177;28;20053;-76
2022/11/06 12:48:03;;;;;;;10.45;2.97;;;11.40;99.90;;;;;;4957413;28;20042;-76
2022/11/06 12:50:36;;;;;;;7.93;2.67;;;11.40;99.90;;;;;;4998265;28;20105;-75
2022/11/06 12:53:18;;;;;;;9.80;2.92;;;11.50;99.90;;;;;;4993129;28;20049;-76
2022/11/06 12:56:15;;;;;;;11.60;2.78;;;11.50;99.90;;;;;;5011309;28;20128;-76
2022/11/06 12:58:51;;;;;;;9.75;3.13;;;11.50;99.90;;;;;;5002464;28;20429;-76
2022/11/06 13:01:29;;;;;;;12.35;3.03;;;11.40;99.90;;;;;;4989478;28;20664;-77
2022/11/06 13:04:05;;;;;;;10.48;3.00;;;11.30;99.90;;;;;;4991990;28;20041;-75
2022/11/06 13:06:30;;;;;;;8.98;3.30;;;11.20;99.90;;;;;;4998996;28;20054;-75
2022/11/06 13:09:32;;;;;;;11.02;2.97;;;11.20;99.90;;;;;;4993847;28;20111;-76
2022/11/06 13:12:04;;;;;;;8.27;2.85;;;11.20;99.90;;;;;;5003109;28;20064;-77
2022/11/06 13:14:40;;;;;;;14.20;3.20;;;11.20;99.90;;;;;;3257349;28;10001254;-77